Time;durP1;ratioP1;P1;durP2;ratioP2;P2;SDS_P1;SDS_P2;PMS_P1;PMS_P2;Temp;Humidity;BMP_temperature;BMP_pressure;BME280_temperature;BME280_humidity;BME280_pressure;Samples;Min_cycle;Max_cycle;Signal;HPM_P1;HPM_P2
2022/03/20 00:02:41;;;;;;;5.55;4.10;;;;;;;-6.89;58.21;97712.41;6374620;27;20047;-64
2022/03/20 00:05:49;;;;;;;5.45;3.88;;;;;;;-6.85;58.02;97700.53;6357423;27;20035;-64
2022/03/20 00:08:54;;;;;;;6.35;4.20;;;;;;;-6.81;57.82;97698.06;6375213;27;20039;-64
2022/03/20 00:11:58;;;;;;;10.98;4.82;;;;;;;-6.74;57.46;97693.03;6375125;27;20055;-64
2022/03/20 00:15:00;;;;;;;8.25;5.18;;;;;;;-6.72;57.64;97704.16;6374116;27;20047;-64
2022/03/20 00:18:03;;;;;;;5.32;4.13;;;;;;;-6.71;57.69;97693.94;6375188;27;20437;-63
2022/03/20 00:21:12;;;;;;;7.10;4.75;;;;;;;-6.67;57.57;97689.75;6357104;27;20043;-64
2022/03/20 00:24:15;;;;;;;5.40;4.15;;;;;;;-6.66;57.37;97682.06;6355929;27;20100;-63
2022/03/20 00:27:19;;;;;;;7.50;4.50;;;;;;;-6.67;57.99;97679.50;6374974;27;20603;-64
2022/03/20 00:30:21;;;;;;;6.95;4.15;;;;;;;-6.67;57.60;97672.69;6374309;27;20039;-64
2022/03/20 00:33:23;;;;;;;7.75;4.80;;;;;;;-6.64;57.72;97669.31;6374544;27;20045;-64
2022/03/20 00:36:26;;;;;;;;;;;;;;;-6.68;57.42;97657.28;6375009;27;20047;-63
2022/03/20 00:39:31;;;;;;;8.07;4.32;;;;;;;-6.84;57.64;97646.81;6374447;27;20292;-64
2022/03/20 00:42:34;;;;;;;8.50;4.95;;;;;;;-6.86;57.80;97645.09;6355458;27;20039;-64
2022/03/20 00:45:36;;;;;;;7.05;4.55;;;;;;;-6.80;57.55;97663.94;6374240;27;20043;-63
2022/03/20 00:48:40;;;;;;;9.57;5.32;;;;;;;-6.84;57.89;97657.06;6374021;27;20054;-63
2022/03/20 00:51:42;;;;;;;10.13;5.07;;;;;;;-6.82;57.96;97663.06;6373441;27;20523;-64
2022/03/20 00:54:49;;;;;;;8.98;4.65;;;;;;;-6.86;58.38;97651.06;6374137;27;20039;-63
2022/03/20 00:57:55;;;;;;;6.88;4.50;;;;;;;-6.80;58.15;97653.69;6374055;27;20043;-64
2022/03/20 01:00:59;;;;;;;6.18;4.85;;;;;;;-6.88;58.82;97645.06;6373937;27;20043;-63
2022/03/20 01:04:02;;;;;;;7.18;5.20;;;;;;;-6.88;58.21;97645.06;6373906;27;20050;-63
2022/03/20 01:07:04;;;;;;;7.85;4.38;;;;;;;-6.82;57.97;97634.94;6373249;27;20039;-63
2022/03/20 01:10:08;;;;;;;8.57;5.40;;;;;;;-6.74;58.49;97636.72;6373372;27;20055;-63
2022/03/20 01:13:09;;;;;;;8.38;4.63;;;;;;;-6.71;58.25;97636.78;6373319;27;20047;-63
2022/03/20 01:16:15;;;;;;;8.10;4.50;;;;;;;-6.79;57.76;97632.41;6373763;27;20043;-64
2022/03/20 01:19:22;;;;;;;4.60;3.65;;;;;;;-6.85;58.14;97629.75;6373477;27;20515;-64
2022/03/20 01:22:23;;;;;;;7.15;4.15;;;;;;;-6.89;58.65;97622.88;6372275;27;20542;-64
2022/03/20 01:25:24;;;;;;;8.00;4.78;;;;;;;-6.85;57.93;97619.53;6372681;27;20047;-64
2022/03/20 01:28:28;;;;;;;6.72;4.13;;;;;;;-7.03;58.00;97596.22;6373201;27;20043;-64
2022/03/20 01:31:32;;;;;;;5.68;3.13;;;;;;;-6.92;58.15;97617.69;6372223;27;20080;-64
2022/03/20 01:34:40;;;;;;;5.50;4.28;;;;;;;-6.93;57.87;97621.09;6373275;27;20496;-64
2022/03/20 01:37:43;;;;;;;7.22;4.32;;;;;;;-6.95;58.58;97620.22;6372352;27;20436;-64
2022/03/20 01:40:48;;;;;;;8.23;4.20;;;;;;;-6.91;58.05;97616.84;6371744;27;20492;-64
2022/03/20 01:43:54;;;;;;;7.70;4.35;;;;;;;-6.81;58.21;97618.72;6372006;27;20105;-63
2022/03/20 01:47:05;;;;;;;6.82;4.25;;;;;;;-6.83;57.50;97609.31;6372746;27;20408;-65
2022/03/20 01:50:07;;;;;;;10.02;5.32;;;;;;;-6.87;57.98;97610.97;6373659;27;20053;-64
2022/03/20 01:53:08;;;;;;;9.68;5.30;;;;;;;-6.93;58.63;97600.63;6372470;27;20115;-63
2022/03/20 01:56:10;;;;;;;8.38;5.28;;;;;;;-7.00;58.16;97588.56;6353819;27;20051;-63
2022/03/20 01:59:15;;;;;;;6.60;4.22;;;;;;;-7.01;58.01;97586.88;6371126;27;20050;-64
2022/03/20 02:02:23;;;;;;;9.55;5.63;;;;;;;-7.08;58.00;97579.91;6372347;27;20047;-63
2022/03/20 02:05:25;;;;;;;8.45;5.00;;;;;;;-7.10;58.33;97584.16;6371553;27;20063;-63
2022/03/20 02:08:27;;;;;;;8.88;5.70;;;;;;;-7.10;58.13;97573.94;6371273;27;20047;-62
2022/03/20 02:11:34;;;;;;;6.05;4.07;;;;;;;-7.10;58.33;97571.38;6372456;27;20046;-64
2022/03/20 02:14:35;;;;;;;;;;;;;;;-7.16;57.99;97566.16;6371937;27;20504;-63
2022/03/20 02:17:43;;;;;;;5.00;4.30;;;;;;;-7.20;58.16;97565.25;6372504;27;19987;-63
2022/03/20 02:20:51;;;;;;;7.22;4.50;;;;;;;-7.19;58.39;97563.53;6371991;27;20043;-63
2022/03/20 02:23:55;;;;;;;9.05;5.05;;;;;;;-7.29;58.00;97542.94;6371250;27;20416;-63
2022/03/20 02:27:04;;;;;;;4.50;2.58;;;;;;;-7.17;58.42;97559.31;6353572;27;20038;-64
2022/03/20 02:30:16;;;;;;;5.90;4.53;;;;;;;-7.02;58.21;97549.31;6371764;27;20179;-63
2022/03/20 02:33:20;;;;;;;8.80;5.28;;;;;;;-7.18;58.16;97544.81;6371693;27;20039;-63
2022/03/20 02:36:25;;;;;;;8.45;5.15;;;;;;;-7.23;58.04;97553.28;6370675;27;20055;-63
2022/03/20 02:39:30;;;;;;;9.27;4.90;;;;;;;-7.30;57.91;97536.13;6352236;27;20047;-64
2022/03/20 02:42:35;;;;;;;7.25;4.95;;;;;;;-7.25;57.63;97537.03;6353332;27;20404;-64
2022/03/20 02:45:39;;;;;;;6.47;4.45;;;;;;;-7.17;57.22;97523.53;6371275;27;20055;-64
2022/03/20 02:48:45;;;;;;;11.25;5.68;;;;;;;-7.18;56.74;97529.47;6371680;27;20043;-67
2022/03/20 02:51:48;;;;;;;;;;;;;;;-7.24;56.60;97528.53;6370673;27;20501;-64
2022/03/20 02:54:51;;;;;;;8.10;4.03;;;;;;;-7.07;56.47;97526.25;6370670;27;19959;-64
2022/03/20 02:57:56;;;;;;;10.00;4.93;;;;;;;-7.01;56.50;97530.59;6370523;27;20046;-64
2022/03/20 03:01:00;;;;;;;9.00;4.63;;;;;;;-6.90;55.54;97523.06;6371321;27;20043;-64
2022/03/20 03:04:01;;;;;;;6.60;5.13;;;;;;;-6.84;55.37;97524.00;6369946;27;20469;-64
2022/03/20 03:07:09;;;;;;;7.32;4.88;;;;;;;-6.77;55.87;97520.69;6371124;28;20051;-64
2022/03/20 03:13:39;;;;;;;8.00;4.95;;;;;;;-6.79;55.70;97512.16;6369978;28;20062;-64
2022/03/20 03:16:42;;;;;;;7.65;4.32;;;;;;;-6.60;54.92;97502.13;6371158;28;20051;-63
2022/03/20 03:19:45;;;;;;;5.40;4.15;;;;;;;-6.55;54.75;97503.06;6369851;28;20141;-64
2022/03/20 03:22:48;;;;;;;6.38;4.63;;;;;;;-6.37;54.79;97495.59;6352221;28;20423;-63
2022/03/20 03:25:50;;;;;;;6.40;5.13;;;;;;;-6.59;55.39;97491.06;6370061;28;20043;-63
2022/03/20 03:28:53;;;;;;;10.10;4.93;;;;;;;-6.45;54.97;97484.41;6370015;28;20050;-63
2022/03/20 03:31:55;;;;;;;4.68;3.90;;;;;;;-6.42;54.64;97487.00;6370756;28;20527;-63
2022/03/20 03:38:27;;;;;;;3.13;2.88;;;;;;;-6.11;54.77;97482.22;6369768;28;20047;-63
2022/03/20 03:41:36;;;;;;;11.50;4.97;;;;;;;-6.04;54.00;97484.00;6370522;28;20130;-64
2022/03/20 03:44:37;;;;;;;12.25;5.13;;;;;;;-5.94;53.71;97474.72;6369414;28;20046;-63
2022/03/20 03:47:40;;;;;;;7.40;4.10;;;;;;;-5.96;53.67;97477.25;6369770;28;20043;-63
2022/03/20 03:50:46;;;;;;;9.13;4.80;;;;;;;-5.98;54.55;97476.34;6371353;28;20045;-63
2022/03/20 03:53:48;;;;;;;9.18;4.65;;;;;;;-5.80;54.05;97474.78;6369835;28;20456;-64
2022/03/20 03:56:52;;;;;;;8.73;4.32;;;;;;;-5.70;53.64;97458.66;6369919;28;20134;-63
2022/03/20 03:59:55;;;;;;;5.85;4.38;;;;;;;-5.57;53.34;97455.34;6370450;28;20492;-63
2022/03/20 04:02:56;;;;;;;10.55;4.93;;;;;;;-5.46;53.49;97453.72;6369654;27;20053;-64
2022/03/20 04:06:04;;;;;;;7.18;4.53;;;;;;;-5.40;53.14;97446.94;6374254;27;20042;-64
2022/03/20 04:09:10;;;;;;;7.78;4.03;;;;;;;-5.32;52.90;97450.38;6374942;27;20489;-64
2022/03/20 04:12:15;;;;;;;7.88;4.68;;;;;;;-5.26;52.63;97446.16;6373977;27;20066;-63
2022/03/20 04:15:25;;;;;;;12.07;6.28;;;;;;;-5.12;52.64;97442.81;6374151;27;20054;-64
2022/03/20 04:18:26;;;;;;;4.57;3.38;;;;;;;-5.00;52.49;97436.03;6374969;27;20045;-63
2022/03/20 04:21:30;;;;;;;6.57;4.63;;;;;;;-4.99;52.67;97440.31;6374690;27;20046;-63
2022/03/20 04:24:36;;;;;;;8.82;4.13;;;;;;;-4.87;52.55;97443.81;6374501;27;20042;-63
2022/03/20 04:27:37;;;;;;;9.90;4.88;;;;;;;-4.71;52.43;97439.59;6356288;27;20504;-64
2022/03/20 04:30:39;;;;;;;7.60;4.68;;;;;;;-4.52;51.60;97426.84;6373673;27;20051;-65
2022/03/20 04:33:53;;;;;;;7.20;4.18;;;;;;;-4.40;51.63;97430.31;6374250;27;20039;-64
2022/03/20 04:36:56;;;;;;;6.80;4.73;;;;;;;-4.46;51.49;97420.00;6374321;27;20035;-63
2022/03/20 04:40:00;;;;;;;9.07;4.13;;;;;;;-4.33;51.77;97419.19;6374430;27;20050;-64
2022/03/20 04:43:04;;;;;;;7.43;4.20;;;;;;;-4.13;51.16;97430.38;6355626;27;20548;-64
2022/03/20 04:46:05;;;;;;;5.72;3.83;;;;;;;-4.06;51.09;97432.09;6373252;27;20500;-64
2022/03/20 04:59:12;;;;;;;8.23;4.15;;;;;;;-3.60;50.43;97400.41;6373010;27;20116;-64
2022/03/20 05:02:15;;;;;;;5.30;3.78;;;;;;;-3.54;50.30;97392.66;6373897;27;20043;-63
2022/03/20 05:05:18;;;;;;;7.65;3.95;;;;;;;-3.40;50.40;97396.13;6373020;27;20043;-63
2022/03/20 05:08:19;;;;;;;10.35;5.22;;;;;;;-3.21;50.35;97398.63;6373131;27;20073;-63
2022/03/20 05:14:44;;;;;;;6.35;4.60;;;;;;;-2.97;49.56;97388.28;6373411;27;19926;-63
2022/03/20 05:17:45;;;;;;;9.02;5.00;;;;;;;-3.11;50.09;97384.91;6372852;27;20411;-63
2022/03/20 05:20:47;;;;;;;7.78;5.30;;;;;;;-3.06;50.11;97383.13;6373199;27;20043;-64
2022/03/20 05:23:50;;;;;;;7.82;4.95;;;;;;;-2.96;50.32;97368.53;6372546;27;20051;-64
2022/03/20 05:26:52;;;;;;;9.73;5.45;;;;;;;-2.77;50.10;97374.47;6372491;27;20526;-63
2022/03/20 05:29:58;;;;;;;8.50;5.82;;;;;;;-2.62;49.61;97355.50;6373312;27;20470;-65
2022/03/20 05:33:00;;;;;;;8.75;5.15;;;;;;;-2.45;49.29;97353.69;6354173;27;20047;-64
2022/03/20 05:36:04;;;;;;;8.65;5.03;;;;;;;-2.26;49.09;97342.41;6372418;27;20419;-64
2022/03/20 05:39:05;;;;;;;9.10;4.57;;;;;;;-2.00;48.94;97343.94;6372755;27;20039;-65
2022/03/20 05:42:06;;;;;;;6.57;4.47;;;;;;;-1.85;48.29;97338.66;6353531;27;20422;-64
2022/03/20 05:45:11;;;;;;;6.28;4.75;;;;;;;-1.56;47.95;97331.53;6373065;27;20194;-63
2022/03/20 05:48:12;;;;;;;7.68;4.30;;;;;;;1.75;44.16;97334.84;6372903;27;20541;-64
2022/03/20 05:51:15;;;;;;;7.03;4.03;;;;;;;7.51;34.22;97334.56;6372583;27;20400;-64
2022/03/20 05:54:19;;;;;;;6.13;3.65;;;;;;;12.83;27.62;97330.41;6372605;27;20038;-65
2022/03/20 06:00:47;;;;;;;4.97;3.50;;;;;;;19.79;20.52;97331.09;6371296;27;20506;-64
2022/03/20 06:03:51;;;;;;;3.47;3.00;;;;;;;22.42;18.11;97334.16;6354525;27;20043;-63
2022/03/20 06:06:58;;;;;;;;;;;;;;;24.71;15.29;97338.47;6372877;27;20035;-63
2022/03/20 06:10:01;;;;;;;4.60;2.90;;;;;;;25.33;15.32;97331.34;6371557;27;20304;-65
2022/03/20 06:13:08;;;;;;;5.07;2.78;;;;;;;26.74;14.00;97327.78;6371730;27;20124;-65
2022/03/20 06:16:12;;;;;;;4.45;2.38;;;;;;;27.87;12.86;97305.34;6371163;27;20051;-64
2022/03/20 06:19:16;;;;;;;3.28;2.40;;;;;;;27.96;11.91;97298.75;6353424;27;20043;-64
2022/03/20 06:22:21;;;;;;;4.93;2.58;;;;;;;28.73;11.02;97293.28;6371174;27;20047;-64
2022/03/20 06:25:24;;;;;;;4.97;2.90;;;;;;;29.53;9.96;97286.09;6371851;27;20047;-66
2022/03/20 06:28:29;;;;;;;4.63;2.65;;;;;;;29.97;9.67;97274.56;6371354;27;20047;-64
2022/03/20 06:31:30;;;;;;;5.53;2.70;;;;;;;30.85;9.15;97282.16;6352946;27;20050;-64
2022/03/20 06:34:34;;;;;;;2.90;1.88;;;;;;;31.30;8.59;97279.34;6370712;27;20047;-63
2022/03/20 06:37:40;;;;;;;4.45;2.22;;;;;;;31.44;8.26;97274.66;6370799;27;20159;-63
2022/03/20 06:40:44;;;;;;;2.67;2.03;;;;;;;31.82;8.40;97259.25;6371302;27;20134;-64
2022/03/20 06:43:50;;;;;;;2.45;1.90;;;;;;;32.41;7.79;97261.31;6371347;27;20035;-65
2022/03/20 06:46:54;;;;;;;3.83;2.00;;;;;;;32.30;7.47;97234.00;6369956;27;20042;-65
2022/03/20 06:50:04;;;;;;;2.65;1.52;;;;;;;32.00;7.43;97239.41;6371182;27;20038;-64
2022/03/20 06:53:11;;;;;;;5.47;2.10;;;;;;;32.58;7.75;97241.63;6371341;27;20130;-63
2022/03/20 06:56:15;;;;;;;2.13;1.90;;;;;;;34.14;7.03;97235.91;6371178;27;20035;-64
2022/03/20 06:59:18;;;;;;;2.95;1.77;;;;;;;35.27;6.35;97234.28;6370098;27;20054;-64
2022/03/20 07:02:23;;;;;;;2.55;1.80;;;;;;;35.86;6.39;97228.31;6369979;27;20181;-63
2022/03/20 07:05:32;;;;;;;2.75;1.83;;;;;;;36.53;6.08;97224.56;6371197;27;20442;-63
2022/03/20 07:08:38;;;;;;;3.10;2.35;;;;;;;36.55;5.56;97207.88;6370854;28;20453;-63
2022/03/20 07:11:39;;;;;;;4.07;2.42;;;;;;;36.53;5.60;97205.38;6369535;28;20047;-63
2022/03/20 07:14:44;;;;;;;3.20;1.80;;;;;;;36.49;5.78;97206.09;6370446;28;20047;-64
2022/03/20 07:17:47;;;;;;;3.50;1.77;;;;;;;36.66;5.68;97198.66;6370957;28;20453;-64
2022/03/20 07:20:54;;;;;;;3.00;2.22;;;;;;;36.69;5.34;97197.28;6370860;28;20506;-65
2022/03/20 07:24:01;;;;;;;3.25;2.38;;;;;;;35.84;5.42;97186.69;6369846;28;20051;-64
2022/03/20 07:30:27;;;;;;;3.10;2.15;;;;;;;35.31;5.79;97177.16;6370886;28;20495;-64
2022/03/20 07:33:32;;;;;;;2.65;2.28;;;;;;;35.99;5.65;97172.38;6370572;28;20450;-64
2022/03/20 07:36:39;;;;;;;3.05;2.10;;;;;;;36.07;5.63;97171.94;6370078;28;20062;-64
2022/03/20 07:39:44;;;;;;;3.17;2.50;;;;;;;37.35;5.41;97172.38;6372416;27;20457;-64
2022/03/20 07:42:48;;;;;;;3.28;2.20;;;;;;;37.33;4.97;97169.91;6375694;27;20514;-64
2022/03/20 07:45:57;;;;;;;4.18;2.47;;;;;;;36.50;5.25;97158.44;6375482;27;20043;-65
2022/03/20 07:49:00;;;;;;;3.53;2.58;;;;;;;36.23;5.85;97152.94;6374604;27;20050;-65
2022/03/20 07:52:02;;;;;;;2.97;2.38;;;;;;;36.00;5.78;97143.88;6375000;27;20051;-64
2022/03/20 07:55:07;;;;;;;2.75;2.20;;;;;;;35.42;5.82;97139.84;6375191;27;20489;-64
2022/03/20 07:58:15;;;;;;;4.13;3.08;;;;;;;35.90;5.50;97135.56;6375168;27;20047;-64
2022/03/20 08:01:18;;;;;;;4.22;2.80;;;;;;;36.76;5.15;97132.13;6356462;27;20049;-64
2022/03/20 08:04:24;;;;;;;4.15;2.70;;;;;;;34.91;5.77;97112.50;6374358;27;20046;-65
2022/03/20 08:07:27;;;;;;;3.80;2.40;;;;;;;32.31;7.21;97110.44;6356554;27;20058;-65
2022/03/20 08:10:29;;;;;;;3.50;2.22;;;;;;;32.28;7.24;97110.91;6374656;27;20058;-65
2022/03/20 08:13:31;;;;;;;3.15;2.42;;;;;;;33.94;6.01;97102.50;6374086;27;20094;-65
2022/03/20 08:16:39;;;;;;;2.97;2.42;;;;;;;34.58;5.98;97092.28;6374718;27;20035;-64
2022/03/20 08:19:46;;;;;;;2.53;1.85;;;;;;;35.72;5.69;97096.44;6375036;27;20043;-66
2022/03/20 08:22:48;;;;;;;2.92;1.95;;;;;;;36.32;5.27;97100.19;6373858;27;20119;-64
2022/03/20 08:25:50;;;;;;;3.50;2.28;;;;;;;36.62;5.42;97087.88;6373777;27;20505;-64
2022/03/20 08:28:53;;;;;;;2.88;2.58;;;;;;;36.60;5.16;97085.41;6374603;27;20039;-64
2022/03/20 08:31:56;;;;;;;4.23;3.23;;;;;;;36.54;5.16;97078.19;6373452;27;20058;-64
2022/03/20 08:34:58;;;;;;;;;;;;;;;38.61;5.12;97077.03;6374711;27;20042;-63
2022/03/20 08:38:04;;;;;;;3.33;2.30;;;;;;;37.57;4.73;97076.19;6355763;27;19916;-65
2022/03/20 08:41:06;;;;;;;2.90;2.60;;;;;;;36.10;5.06;97056.41;6373619;27;20077;-64
2022/03/20 08:44:10;;;;;;;2.33;2.08;;;;;;;36.06;5.10;97051.69;6374179;27;20116;-65
2022/03/20 08:47:13;;;;;;;2.83;2.25;;;;;;;35.11;5.46;97046.38;6374267;27;20041;-65
2022/03/20 08:50:19;;;;;;;3.92;2.17;;;;;;;34.23;5.84;97034.28;6373547;27;20035;-65
2022/03/20 08:53:25;;;;;;;2.30;2.00;;;;;;;34.34;5.91;97034.22;6373591;27;20051;-64
2022/03/20 08:56:33;;;;;;;3.92;2.20;;;;;;;34.89;5.61;97021.69;6373910;27;20496;-64
2022/03/20 08:59:40;;;;;;;2.83;2.28;;;;;;;34.66;5.73;97011.81;6373883;27;20042;-65
2022/03/20 09:02:45;;;;;;;3.80;1.95;;;;;;;33.68;5.67;97006.50;6373297;27;20054;-65
2022/03/20 09:05:49;;;;;;;3.00;2.00;;;;;;;33.52;5.93;97007.28;6373127;27;20538;-64
2022/03/20 09:08:55;;;;;;;2.85;2.35;;;;;;;33.87;5.96;96998.94;6373800;27;20079;-65
2022/03/20 09:12:01;;;;;;;2.45;2.25;;;;;;;32.89;6.42;96997.97;6373480;27;20043;-64
2022/03/20 09:15:12;;;;;;;3.13;2.00;;;;;;;31.33;6.80;97000.75;6373537;27;20039;-64
2022/03/20 09:21:39;;;;;;;2.75;2.33;;;;;;;30.05;7.37;96971.50;6373481;27;20050;-64
2022/03/20 09:24:48;;;;;;;2.20;2.00;;;;;;;31.19;7.22;96970.19;6372152;27;20047;-65
2022/03/20 09:27:51;;;;;;;2.78;2.40;;;;;;;30.43;7.57;96963.25;6372886;27;20513;-64
2022/03/20 09:31:00;;;;;;;2.85;2.13;;;;;;;29.99;7.85;96949.59;6375036;27;20540;-66
2022/03/20 09:34:04;;;;;;;2.47;2.20;;;;;;;30.98;7.28;96944.31;6376201;27;20039;-64
2022/03/20 09:37:06;;;;;;;6.93;2.90;;;;;;;31.44;6.92;96937.47;6384723;27;20042;-65
2022/03/20 09:40:11;;;;;;;10.68;7.97;;;;;;;31.50;7.08;96944.69;6374518;27;20039;-63
2022/03/20 09:43:13;;;;;;;6.00;4.65;;;;;;;31.05;7.62;96927.91;6386714;27;20038;-64
2022/03/20 09:46:21;;;;;;;6.45;5.30;;;;;;;30.33;8.18;96924.94;6394206;27;20043;-65
2022/03/20 09:49:25;;;;;;;5.75;4.35;;;;;;;29.27;8.62;96910.22;6380234;27;20051;-63
2022/03/20 09:52:27;;;;;;;4.93;3.88;;;;;;;29.76;8.68;96903.28;6381682;27;20046;-64
2022/03/20 09:55:31;;;;;;;4.20;3.25;;;;;;;30.14;8.17;96902.31;6378749;27;20039;-63
2022/03/20 09:58:36;;;;;;;3.10;2.72;;;;;;;30.59;7.94;96896.66;6380701;27;20031;-63
2022/03/20 10:01:38;;;;;;;4.93;3.80;;;;;;;30.09;8.01;96886.72;6370297;27;20031;-66
2022/03/20 10:04:53;;;;;;;4.45;3.50;;;;;;;30.01;8.64;96883.44;6384985;27;20043;-64
2022/03/20 10:08:10;;;;;;;4.05;3.65;;;;;;;30.86;7.95;96875.50;6395528;27;20078;-64
2022/03/20 10:11:16;;;;;;;6.55;4.90;;;;;;;29.61;8.58;96867.47;6379597;27;20043;-65
2022/03/20 10:14:22;;;;;;;6.13;4.38;;;;;;;28.79;9.31;96859.16;6378781;27;20059;-64
2022/03/20 10:17:28;;;;;;;4.40;3.70;;;;;;;29.28;8.75;96857.69;6396975;27;20130;-63
2022/03/20 10:20:44;;;;;;;4.75;4.25;;;;;;;28.37;9.21;96845.97;6393426;27;20039;-64
2022/03/20 10:23:48;;;;;;;3.22;2.70;;;;;;;26.84;9.83;96843.19;6380913;27;20047;-64
2022/03/20 10:27:00;;;;;;;6.78;2.95;;;;;;;27.26;9.99;96826.88;6372175;27;20034;-63
2022/03/20 10:30:07;;;;;;;3.47;2.78;;;;;;;27.90;9.60;96822.75;6388889;27;20495;-70
2022/03/20 10:33:14;;;;;;;3.20;2.67;;;;;;;27.76;9.29;96828.13;6386772;27;20062;-67
2022/03/20 10:36:20;;;;;;;5.35;2.88;;;;;;;26.19;10.01;96820.25;6374648;27;20030;-67
2022/03/20 10:39:29;;;;;;;4.93;3.53;;;;;;;25.35;10.73;96821.06;6379960;27;20034;-71
2022/03/20 10:42:33;;;;;;;4.35;3.00;;;;;;;23.96;11.62;96801.41;6390251;27;20039;-71
2022/03/20 10:45:57;;;;;;;6.95;4.75;;;;;;;23.91;11.86;96791.19;6355139;27;20035;-67
2022/03/20 10:48:59;;;;;;;;;;;;;;;24.67;11.23;96798.19;6379556;27;20065;-68
2022/03/20 10:52:09;;;;;;;5.40;4.18;;;;;;;23.94;11.89;96776.56;6374032;27;19920;-67
2022/03/20 10:55:13;;;;;;;7.80;5.38;;;;;;;24.11;12.07;96780.72;6390030;27;20039;-67
2022/03/20 10:58:25;;;;;;;6.78;4.90;;;;;;;23.69;12.38;96762.53;6395520;27;20050;-67
2022/03/20 11:01:36;;;;;;;6.85;5.30;;;;;;;23.09;12.85;96766.97;6395960;27;20043;-67
2022/03/20 11:04:41;;;;;;;4.88;3.65;;;;;;;22.62;12.92;96765.28;6395701;27;20047;-66
2022/03/20 11:07:45;;;;;;;4.97;3.70;;;;;;;22.84;12.65;96769.84;6397111;27;20411;-67
2022/03/20 11:10:50;;;;;;;3.63;3.28;;;;;;;22.82;12.54;96763.81;6395976;27;20042;-67
2022/03/20 11:13:54;;;;;;;3.60;2.72;;;;;;;22.37;12.62;96746.66;6401243;27;20397;-67
2022/03/20 11:17:05;;;;;;;3.25;2.72;;;;;;;21.67;12.82;96743.94;6396122;27;20054;-67
2022/03/20 11:20:12;;;;;;;5.15;3.28;;;;;;;21.00;13.45;96736.13;6379660;27;20462;-67
2022/03/20 11:23:15;;;;;;;4.05;3.05;;;;;;;21.31;13.13;96722.88;6360710;27;20492;-67
2022/03/20 11:26:25;;;;;;;3.50;3.15;;;;;;;21.83;12.76;96732.34;6378995;27;20046;-67
2022/03/20 11:29:31;;;;;;;4.72;3.13;;;;;;;21.19;13.05;96729.59;6378717;27;20047;-67
2022/03/20 11:32:35;;;;;;;4.18;3.78;;;;;;;20.60;13.60;96727.94;6379080;27;20050;-66
2022/03/20 11:35:40;;;;;;;4.35;3.95;;;;;;;20.18;13.88;96715.50;6379140;27;20412;-66
2022/03/20 11:39:13;;;;;;;3.95;3.33;;;;;;;19.73;14.21;96706.00;6379376;27;20047;-66
2022/03/20 11:42:28;;;;;;;3.63;3.28;;;;;;;19.00;15.16;96697.56;6377620;27;20043;-64
2022/03/20 11:45:33;;;;;;;5.65;3.78;;;;;;;18.75;15.14;96694.72;6379491;27;20369;-64
2022/03/20 11:48:34;;;;;;;4.00;3.60;;;;;;;18.11;15.63;96685.09;6379219;27;20515;-64
2022/03/20 11:52:00;;;;;;;4.20;3.80;;;;;;;17.66;16.58;96688.56;6379159;27;20049;-64
2022/03/20 11:55:05;;;;;;;4.53;4.10;;;;;;;17.50;16.29;96679.41;6377753;27;20043;-64
2022/03/20 11:58:37;;;;;;;4.40;3.08;;;;;;;17.05;16.57;96660.69;6378113;27;20130;-63
2022/03/20 12:02:04;;;;;;;4.22;3.20;;;;;;;16.56;18.07;96665.22;6377689;27;20054;-63
2022/03/20 12:05:26;;;;;;;5.38;3.30;;;;;;;15.12;18.89;96657.72;6379264;27;20043;-64
2022/03/20 12:08:57;;;;;;;4.13;3.65;;;;;;;13.44;20.36;96646.94;6378672;27;20043;-65
2022/03/20 12:12:28;;;;;;;5.15;3.47;;;;;;;11.71;22.61;96646.09;6377560;27;20043;-63
2022/03/20 12:15:41;;;;;;;5.57;3.53;;;;;;;10.49;23.44;96635.38;6378104;27;20053;-64
2022/03/20 12:19:05;;;;;;;4.68;3.22;;;;;;;9.78;24.43;96637.44;6359422;27;20053;-64
2022/03/20 12:22:18;;;;;;;5.87;3.57;;;;;;;9.17;25.62;96631.72;6378159;27;20050;-65
2022/03/20 12:25:42;;;;;;;6.40;3.78;;;;;;;8.85;26.91;96628.47;6375437;27;20448;-65
2022/03/20 12:28:48;;;;;;;8.43;5.85;;;;;;;8.40;28.60;96625.06;6374686;27;20047;-64
2022/03/20 12:31:58;;;;;;;8.50;5.78;;;;;;;8.05;28.72;96628.00;6372200;27;20043;-64
2022/03/20 12:35:04;;;;;;;8.50;6.38;;;;;;;7.69;29.66;96619.66;6374167;27;20500;-63
2022/03/20 12:38:33;;;;;;;9.63;6.57;;;;;;;7.19;30.82;96604.09;6374083;27;20051;-64
2022/03/20 12:41:35;;;;;;;9.52;6.43;;;;;;;6.69;31.12;96602.47;6373605;27;20051;-63
2022/03/20 12:44:44;;;;;;;8.30;6.82;;;;;;;6.55;31.69;96612.81;6372751;27;20134;-64
2022/03/20 12:48:04;;;;;;;11.85;7.00;;;;;;;7.26;31.46;96601.13;6373138;27;20055;-64
2022/03/20 12:51:10;;;;;;;7.50;6.13;;;;;;;8.14;30.81;96599.56;6373875;27;20050;-64
2022/03/20 12:54:16;;;;;;;9.32;5.82;;;;;;;8.65;28.78;96592.13;6380770;27;20129;-63
2022/03/20 12:57:17;;;;;;;7.82;5.55;;;;;;;8.63;28.14;96592.22;6375693;27;20526;-63
2022/03/20 13:00:27;;;;;;;5.32;4.07;;;;;;;8.48;28.56;96582.66;6378808;27;20073;-65
2022/03/20 13:03:32;;;;;;;10.60;4.80;;;;;;;8.03;29.62;96587.09;6383846;27;20031;-65
2022/03/20 13:06:39;;;;;;;9.85;6.28;;;;;;;7.32;31.06;96582.47;6387655;27;20035;-63
2022/03/20 13:09:44;;;;;;;6.30;4.88;;;;;;;7.13;31.29;96585.25;6387955;27;20091;-63
2022/03/20 13:12:58;;;;;;;6.10;4.85;;;;;;;7.10;32.18;96577.59;6386490;27;20139;-66
2022/03/20 13:16:01;;;;;;;8.77;6.97;;;;;;;6.69;32.63;96580.72;6375009;27;20133;-62
2022/03/20 13:19:03;;;;;;;12.07;7.50;;;;;;;6.22;33.38;96565.78;6383438;27;20051;-65
2022/03/20 13:22:09;;;;;;;;;;;;;;;5.70;33.68;96569.28;6375508;27;20051;-58
2022/03/20 13:25:16;;;;;;;9.32;6.32;;;;;;;4.91;35.55;96569.63;6390107;27;19918;-61
2022/03/20 13:28:36;;;;;;;7.57;5.57;;;;;;;4.57;35.83;96554.72;6398516;27;20055;-57
2022/03/20 13:31:43;;;;;;;8.52;6.13;;;;;;;3.98;36.83;96561.69;6398422;27;20057;-69
2022/03/20 13:34:46;;;;;;;11.07;8.10;;;;;;;3.94;37.48;96554.94;6364670;27;20053;-59
2022/03/20 13:37:59;;;;;;;10.35;7.60;;;;;;;3.72;37.57;96557.63;6387989;27;20111;-61
2022/03/20 13:41:07;;;;;;;9.52;6.10;;;;;;;3.55;38.17;96555.72;6380792;27;20046;-59
2022/03/20 13:44:11;;;;;;;8.88;5.85;;;;;;;3.48;38.08;96556.91;6373468;27;20035;-62
2022/03/20 13:47:15;;;;;;;9.52;6.57;;;;;;;3.27;38.17;96547.38;6384434;27;20457;-67
2022/03/20 13:50:22;;;;;;;7.60;5.68;;;;;;;3.12;37.76;96549.69;6372992;27;20509;-62
2022/03/20 13:53:26;;;;;;;;;;;;;;;3.02;38.19;96547.53;6373114;27;20167;-63
2022/03/20 13:56:30;;;;;;;8.60;5.45;;;;;;;2.82;38.64;96549.16;6370639;27;20013;-66
2022/03/20 13:59:46;;;;;;;4.93;4.20;;;;;;;2.79;38.73;96543.25;6373371;27;20051;-62
2022/03/20 14:02:51;;;;;;;5.25;4.68;;;;;;;2.63;38.70;96546.44;6372567;27;20047;-60
2022/03/20 14:05:56;;;;;;;5.47;4.53;;;;;;;2.58;38.83;96542.34;6373195;27;20503;-65
2022/03/20 14:09:03;;;;;;;4.28;3.83;;;;;;;2.43;39.37;96539.38;6380756;27;20039;-67
2022/03/20 14:12:28;;;;;;;;;;;;;;;2.28;39.72;96533.94;6378476;27;20054;-62
2022/03/20 14:15:33;;;;;;;12.30;7.38;;;;;;;2.13;40.62;96531.03;6377778;27;19962;-62
2022/03/20 14:18:56;;;;;;;11.53;7.03;;;;;;;1.85;41.86;96535.53;6398133;27;20558;-62
2022/03/20 14:22:01;;;;;;;8.93;6.30;;;;;;;1.84;41.29;96528.63;6375517;27;20047;-62
2022/03/20 14:25:05;;;;;;;8.85;6.03;;;;;;;1.62;41.36;96519.03;6370026;27;20043;-61
2022/03/20 14:28:12;;;;;;;7.95;5.18;;;;;;;1.53;41.92;96521.94;6397361;27;20041;-62
2022/03/20 14:42:01;;;;;;;7.82;5.22;;;;;;;1.35;41.66;96500.91;6370590;27;20050;-62
2022/03/20 14:45:09;;;;;;;5.53;3.95;;;;;;;1.37;41.75;96502.63;6370737;27;20051;-62
2022/03/20 14:48:13;;;;;;;5.63;4.05;;;;;;;1.33;41.88;96502.72;6371462;27;20043;-62
2022/03/20 14:51:14;;;;;;;5.55;4.05;;;;;;;1.48;42.21;96498.75;6352255;27;20531;-62
2022/03/20 14:54:23;;;;;;;6.22;4.30;;;;;;;1.35;41.94;96495.72;6376579;27;20062;-61
2022/03/20 14:57:30;;;;;;;5.32;4.82;;;;;;;1.41;42.52;96493.84;6371571;27;20047;-60
2022/03/20 15:00:35;;;;;;;6.30;4.05;;;;;;;1.46;41.94;96497.13;6388678;27;20051;-63
2022/03/20 15:03:36;;;;;;;4.85;3.83;;;;;;;1.47;42.30;96494.50;6390476;27;20062;-61
2022/03/20 15:06:47;;;;;;;5.35;3.88;;;;;;;1.57;42.49;96489.81;6376786;27;20047;-60
2022/03/20 15:13:15;;;;;;;4.15;3.40;;;;;;;1.44;42.63;96483.34;6385646;27;20536;-60
2022/03/20 15:16:19;;;;;;;5.15;3.65;;;;;;;1.49;42.77;96477.09;6384999;27;20051;-62
2022/03/20 15:19:21;;;;;;;4.18;3.15;;;;;;;1.60;42.36;96479.31;6379282;27;20516;-62
2022/03/20 15:22:25;;;;;;;5.43;3.28;;;;;;;1.65;42.04;96477.41;6370317;28;20051;-61
2022/03/20 15:25:28;;;;;;;4.57;3.47;;;;;;;1.71;41.39;96482.38;6370214;28;20047;-62
2022/03/20 15:28:33;;;;;;;5.75;3.92;;;;;;;1.71;41.96;96466.81;6369747;28;20043;-60